Time;durP1;ratioP1;P1;durP2;ratioP2;P2;SDS_P1;SDS_P2;PMS_P1;PMS_P2;Temp;Humidity;BMP_temperature;BMP_pressure;BME280_temperature;BME280_humidity;BME280_pressure;Samples;Min_cycle;Max_cycle;Signal;HPM_P1;HPM_P2
2022/01/06 00:00:53;;;;;;;9.40;1.67;;;15.10;47.30;14.30;100744.00;;;;5008774;28;20144;-68
2022/01/06 00:03:39;;;;;;;10.63;1.88;;;15.10;47.30;14.30;100749.00;;;;5021010;28;20037;-68
2022/01/06 00:06:25;;;;;;;10.50;1.80;;;15.10;47.30;14.30;100762.00;;;;4999596;28;20046;-68
2022/01/06 00:09:15;;;;;;;6.72;1.80;;;15.10;47.20;14.30;100777.00;;;;5019722;28;20042;-68
2022/01/06 00:12:01;;;;;;;10.93;2.25;;;15.10;47.20;14.30;100782.00;;;;5021371;28;20041;-68
2022/01/06 00:18:13;;;;;;;6.05;1.50;;;15.10;47.30;14.30;100775.00;;;;5017840;28;20049;-68
2022/01/06 00:24:15;;;;;;;7.25;1.90;;;15.10;47.40;14.30;100795.00;;;;4935708;28;20046;-68
2022/01/06 00:27:02;;;;;;;8.48;1.88;;;15.10;47.40;14.30;100800.00;;;;5006965;28;20052;-68
2022/01/06 00:29:48;;;;;;;7.45;1.48;;;15.10;47.30;14.30;100823.00;;;;5024780;28;20315;-68
2022/01/06 00:32:34;;;;;;;4.40;1.17;;;15.10;47.40;14.30;100814.00;;;;5017553;28;20042;-68
2022/01/06 00:35:20;;;;;;;4.70;1.75;;;15.10;47.40;14.30;100819.00;;;;5017545;28;20037;-68
2022/01/06 00:38:07;;;;;;;9.63;1.58;;;15.10;47.50;14.30;100806.00;;;;5009594;28;20116;-68
2022/01/06 00:40:54;;;;;;;5.88;1.73;;;15.10;47.60;14.30;100824.00;;;;5005242;28;20514;-68
2022/01/06 00:43:40;;;;;;;5.75;1.30;;;15.10;47.50;14.30;100820.00;;;;5009792;28;20372;-68
2022/01/06 00:46:26;;;;;;;11.48;2.00;;;15.10;47.50;14.30;100821.00;;;;5017340;28;20045;-68
2022/01/06 00:49:13;;;;;;;8.95;1.50;;;15.10;47.50;14.30;100818.00;;;;5015031;28;20103;-68
2022/01/06 00:51:59;;;;;;;6.80;1.38;;;15.10;47.40;14.30;100828.00;;;;5019189;28;20403;-68
2022/01/06 00:54:45;;;;;;;5.32;1.52;;;15.10;47.50;14.30;100815.00;;;;5014287;28;20053;-68
2022/01/06 00:57:31;;;;;;;6.07;1.52;;;15.10;47.40;14.30;100807.00;;;;5017501;28;20038;-68
2022/01/06 01:00:17;;;;;;;5.10;1.63;;;15.10;47.50;14.30;100794.00;;;;5002339;28;20041;-68
2022/01/06 01:03:17;;;;;;;5.25;1.40;;;15.10;47.40;14.30;100809.00;;;;5018698;28;20052;-68
2022/01/06 01:06:03;;;;;;;6.30;1.30;;;15.10;47.40;14.30;100810.00;;;;5006941;28;20045;-68
2022/01/06 01:08:50;;;;;;;5.78;1.52;;;15.10;47.40;14.30;100823.00;;;;5022990;28;20045;-68
2022/01/06 01:11:38;;;;;;;3.55;1.30;;;15.10;47.40;14.30;100824.00;;;;5020488;28;20042;-68
2022/01/06 01:14:29;;;;;;;;;;;15.10;47.40;14.20;100829.00;;;;5018126;28;20041;-68
2022/01/06 01:17:17;;;;;;;3.67;1.13;;;15.10;47.60;14.20;100826.00;;;;5016834;28;19931;-68
2022/01/06 01:20:04;;;;;;;;;;;15.10;47.40;14.20;100843.00;;;;5016271;28;20045;-68
2022/01/06 01:22:50;;;;;;;4.00;1.27;;;15.10;47.60;14.20;100844.00;;;;5020431;28;20008;-68
2022/01/06 01:25:36;;;;;;;6.63;1.30;;;15.10;47.40;14.20;100848.00;;;;5013363;28;20046;-68
2022/01/06 01:28:31;;;;;;;5.18;1.10;;;15.10;47.40;14.20;100848.00;;;;5005216;28;20541;-68
2022/01/06 01:34:09;;;;;;;7.03;1.35;;;15.10;47.40;14.20;100859.00;;;;5016774;28;20040;-68
2022/01/06 01:36:55;;;;;;;8.52;1.65;;;15.10;47.50;14.20;100863.00;;;;5016346;28;20132;-68
2022/01/06 01:39:42;;;;;;;4.63;1.02;;;15.00;48.20;14.20;100874.00;;;;4990540;28;20037;-68
2022/01/06 01:42:28;;;;;;;5.93;1.23;;;15.10;47.50;14.20;100868.00;;;;4989295;28;20509;-68
2022/01/06 01:45:16;;;;;;;5.90;1.33;;;15.10;47.50;14.20;100877.00;;;;4990499;28;20035;-68
2022/01/06 01:48:06;;;;;;;5.40;1.25;;;15.10;47.60;14.30;100886.00;;;;5006735;28;20041;-68
2022/01/06 01:50:52;;;;;;;5.32;1.20;;;15.10;47.60;14.30;100895.00;;;;5021005;28;20395;-68
2022/01/06 01:53:38;;;;;;;4.63;1.02;;;15.10;47.60;14.30;100895.00;;;;5007615;28;20041;-68
2022/01/06 01:56:25;;;;;;;8.85;1.38;;;15.10;47.50;14.30;100890.00;;;;5017980;28;20127;-68
2022/01/06 01:59:12;;;;;;;5.35;1.27;;;15.10;47.50;14.30;100894.00;;;;5018657;28;20132;-68
2022/01/06 02:01:58;;;;;;;3.55;1.17;;;15.10;47.50;14.30;100900.00;;;;5019235;28;20038;-68
2022/01/06 02:04:44;;;;;;;5.88;1.20;;;15.10;47.50;14.30;100908.00;;;;5005768;28;20045;-68
2022/01/06 02:07:31;;;;;;;7.47;1.20;;;15.10;47.60;14.30;100913.00;;;;5017344;28;20042;-68
2022/01/06 02:10:20;;;;;;;5.57;1.17;;;15.10;47.60;14.30;100914.00;;;;5014370;28;20053;-68
2022/01/06 02:13:06;;;;;;;8.07;1.67;;;15.10;47.50;14.30;100928.00;;;;5019470;28;20466;-68
2022/01/06 02:15:52;;;;;;;4.28;1.10;;;15.10;47.50;14.30;100934.00;;;;5000096;28;20041;-68
2022/01/06 02:18:38;;;;;;;4.82;1.17;;;15.20;47.60;14.30;100939.00;;;;5020410;28;20041;-68
2022/01/06 02:21:24;;;;;;;5.65;1.50;;;15.10;47.60;14.30;100938.00;;;;5020833;28;20032;-68
2022/01/06 02:24:11;;;;;;;4.07;1.35;;;15.20;47.60;14.30;100949.00;;;;5014472;28;20624;-68
2022/01/06 02:26:57;;;;;;;6.93;1.35;;;15.20;47.60;14.30;100961.00;;;;5014860;28;20379;-68
2022/01/06 02:29:43;;;;;;;4.25;0.90;;;15.20;47.60;14.30;100945.00;;;;5016902;28;20092;-68
2022/01/06 02:32:29;;;;;;;6.95;1.20;;;15.20;47.60;14.40;100948.00;;;;5013767;28;20041;-68
2022/01/06 02:35:22;;;;;;;7.18;1.50;;;15.20;47.60;14.30;100952.00;;;;4999056;28;20364;-68
2022/01/06 02:38:10;;;;;;;5.70;1.20;;;15.20;47.60;14.40;100959.00;;;;5015923;28;20758;-68
2022/01/06 02:40:56;;;;;;;4.22;1.15;;;15.20;47.60;14.40;100949.00;;;;5000360;28;20083;-68
2022/01/06 02:43:43;;;;;;;5.32;1.48;;;15.20;47.70;14.40;100963.00;;;;4987640;28;20418;-68
2022/01/06 02:46:29;;;;;;;6.55;1.63;;;15.20;47.70;14.30;100961.00;;;;5005334;28;20207;-68
2022/01/06 02:49:15;;;;;;;6.57;1.50;;;15.20;47.60;14.40;100975.00;;;;5018331;28;20044;-68
2022/01/06 02:52:01;;;;;;;4.10;1.10;;;15.20;47.60;14.40;100981.00;;;;5016248;28;20449;-68
2022/01/06 02:54:47;;;;;;;5.88;1.20;;;15.20;47.60;14.40;100983.00;;;;5018068;28;20475;-68
2022/01/06 02:57:34;;;;;;;3.17;1.20;;;15.20;47.60;14.40;100988.00;;;;5018447;28;20680;-68
2022/01/06 03:00:20;;;;;;;4.63;1.08;;;15.20;47.60;14.40;100983.00;;;;4985096;28;20377;-68
2022/01/06 03:03:06;;;;;;;5.25;1.00;;;15.20;47.60;14.40;100994.00;;;;4998536;28;20034;-68
2022/01/06 03:05:52;;;;;;;4.60;1.00;;;15.20;47.60;14.40;100997.00;;;;5003127;28;20040;-68
2022/01/06 03:08:38;;;;;;;2.30;0.93;;;15.20;47.60;14.40;100993.00;;;;4999083;28;20184;-68
2022/01/06 03:11:26;;;;;;;4.57;0.88;;;15.20;47.60;14.40;101000.00;;;;4994041;28;20042;-68
2022/01/06 03:14:12;;;;;;;5.20;1.10;;;15.20;47.50;14.30;101004.00;;;;4991972;28;20042;-68
2022/01/06 03:16:58;;;;;;;3.97;1.10;;;15.20;47.60;14.30;101005.00;;;;4988703;28;20933;-68
2022/01/06 03:19:44;;;;;;;5.97;1.10;;;15.20;47.60;14.30;101013.00;;;;4997359;28;20038;-68
2022/01/06 03:22:31;;;;;;;2.70;0.90;;;15.20;47.60;14.40;101013.00;;;;4994160;28;20117;-68
2022/01/06 03:25:17;;;;;;;3.75;0.95;;;15.20;47.60;14.30;101017.00;;;;4998184;28;20100;-68
2022/01/06 03:28:03;;;;;;;5.85;1.00;;;15.20;47.60;14.30;101015.00;;;;4992246;28;20105;-68
2022/01/06 03:30:49;;;;;;;2.75;1.13;;;15.20;47.60;14.30;101015.00;;;;4994836;28;20046;-68
2022/01/06 03:33:36;;;;;;;6.10;1.70;;;15.20;47.60;14.30;101011.00;;;;4995843;28;20070;-68
2022/01/06 03:36:22;;;;;;;6.68;1.33;;;15.20;47.60;14.30;101020.00;;;;4991985;28;20446;-68
2022/01/06 03:39:08;;;;;;;5.05;1.33;;;15.20;47.60;14.30;101019.00;;;;4982206;28;20042;-68
2022/01/06 03:41:54;;;;;;;2.33;0.70;;;15.20;47.60;14.30;101030.00;;;;4981517;28;20406;-68
2022/01/06 03:44:40;;;;;;;4.13;1.08;;;15.20;47.60;14.30;101031.00;;;;4971179;28;20416;-68
2022/01/06 03:47:26;;;;;;;3.40;0.82;;;15.20;47.60;14.30;101029.00;;;;4997475;28;20054;-68
2022/01/06 03:50:14;;;;;;;3.17;0.93;;;15.20;47.60;14.30;101031.00;;;;4992789;28;20049;-68
2022/01/06 03:53:00;;;;;;;4.15;0.95;;;15.20;47.70;14.30;101038.00;;;;4994027;28;20133;-68
2022/01/06 03:55:46;;;;;;;4.03;1.00;;;15.20;47.60;14.30;101042.00;;;;4991763;28;20038;-68
2022/01/06 03:58:32;;;;;;;2.53;0.88;;;15.20;47.60;14.30;101041.00;;;;4983879;28;20155;-68
2022/01/06 04:01:18;;;;;;;2.95;0.90;;;15.20;47.60;14.30;101053.00;;;;5011995;28;20128;-68
2022/01/06 04:04:04;;;;;;;3.50;0.80;;;15.20;47.60;14.30;101046.00;;;;5002123;28;20051;-68
2022/01/06 04:06:51;;;;;;;2.65;1.10;;;15.20;47.60;14.30;101052.00;;;;4999971;28;20434;-68
2022/01/06 04:09:37;;;;;;;5.68;1.23;;;15.20;47.70;14.30;101056.00;;;;5016792;28;20045;-68
2022/01/06 04:12:23;;;;;;;4.70;1.13;;;15.20;47.60;14.30;101058.00;;;;4990993;28;20041;-68
2022/01/06 04:15:12;;;;;;;3.95;1.10;;;15.20;47.60;14.30;101052.00;;;;5017041;28;20041;-68
2022/01/06 04:17:58;;;;;;;6.05;1.20;;;15.20;47.40;14.30;101052.00;;;;5017379;28;20057;-68
2022/01/06 04:20:44;;;;;;;4.88;1.20;;;15.20;47.30;14.30;101065.00;;;;5016922;28;20046;-68
2022/01/06 04:23:31;;;;;;;4.75;1.08;;;15.20;47.30;14.30;101065.00;;;;5018235;28;20041;-68
2022/01/06 04:26:17;;;;;;;2.30;0.95;;;15.20;47.20;14.40;101075.00;;;;5014488;28;20042;-68
2022/01/06 04:29:03;;;;;;;4.70;0.90;;;15.20;47.30;14.40;101075.00;;;;5004029;28;20591;-68
2022/01/06 04:31:49;;;;;;;4.80;1.30;;;15.20;47.30;14.40;101074.00;;;;5019033;28;20387;-68
2022/01/06 04:34:35;;;;;;;2.03;1.00;;;15.20;47.20;14.40;101074.00;;;;5016538;28;20106;-68
2022/01/06 04:37:22;;;;;;;3.88;0.93;;;15.20;47.20;14.40;101086.00;;;;5014090;28;20077;-68
2022/01/06 04:40:08;;;;;;;3.67;1.02;;;15.20;47.20;14.40;101090.00;;;;5018981;28;20573;-68
2022/01/06 04:42:55;;;;;;;5.05;1.55;;;15.20;47.20;14.40;101091.00;;;;5014791;28;20052;-68
2022/01/06 04:45:41;;;;;;;3.65;0.85;;;15.20;47.10;14.50;101096.00;;;;5017581;28;20489;-68
2022/01/06 04:48:27;;;;;;;3.60;1.25;;;15.30;47.20;14.50;101090.00;;;;5019073;28;20042;-68
2022/01/06 04:51:13;;;;;;;3.65;1.10;;;15.30;47.10;14.50;101096.00;;;;5019861;28;20053;-68
2022/01/06 04:53:59;;;;;;;6.00;1.38;;;15.30;47.10;14.50;101102.00;;;;5016920;28;20038;-68
2022/01/06 04:56:46;;;;;;;6.90;1.20;;;15.30;47.10;14.50;101102.00;;;;4997766;28;20046;-68
2022/01/06 04:59:32;;;;;;;3.03;1.10;;;15.30;47.10;14.50;101113.00;;;;5020182;28;20508;-68
2022/01/06 05:02:18;;;;;;;4.22;1.00;;;15.30;47.10;14.50;101127.00;;;;5018054;28;20115;-68
2022/01/06 05:05:05;;;;;;;2.38;0.73;;;15.30;47.00;14.50;101143.00;;;;5002391;28;20037;-68
2022/01/06 05:07:51;;;;;;;4.22;0.80;;;15.30;47.00;14.50;101156.00;;;;5016824;28;20045;-68
2022/01/06 05:10:37;;;;;;;6.03;1.45;;;15.30;47.10;14.50;101165.00;;;;5016283;28;20048;-68
2022/01/06 05:13:23;;;;;;;5.07;1.13;;;15.30;47.20;14.50;101177.00;;;;5017057;28;20169;-68
2022/01/06 05:16:09;;;;;;;3.97;0.90;;;15.30;47.30;14.50;101181.00;;;;5014587;28;20053;-68
2022/01/06 05:18:55;;;;;;;3.92;1.02;;;15.30;47.30;14.50;101180.00;;;;5019301;28;20048;-68
2022/01/06 05:21:42;;;;;;;2.75;0.90;;;15.30;47.30;14.50;101187.00;;;;5016809;28;20169;-68
2022/01/06 05:24:28;;;;;;;2.75;0.98;;;15.30;47.40;14.50;101195.00;;;;5016413;28;21650;-68
2022/01/06 05:27:14;;;;;;;6.07;1.50;;;15.30;47.30;14.50;101199.00;;;;5015920;28;20045;-68
2022/01/06 05:30:00;;;;;;;5.05;1.10;;;15.30;47.30;14.50;101198.00;;;;5011668;28;20122;-68
2022/01/06 05:32:47;;;;;;;4.60;1.42;;;15.30;47.40;14.50;101191.00;;;;5013518;28;20499;-68
2022/01/06 05:35:33;;;;;;;3.83;0.93;;;15.30;47.30;14.40;101194.00;;;;5018239;28;20048;-68
2022/01/06 05:38:19;;;;;;;5.88;1.30;;;15.30;47.30;14.40;101169.00;;;;4998380;28;20621;-68
2022/01/06 05:41:05;;;;;;;4.88;1.10;;;15.30;47.30;14.40;101157.00;;;;5022483;28;20045;-68
2022/01/06 05:43:52;;;;;;;4.47;0.80;;;15.30;47.30;14.40;101136.00;;;;5003117;28;20049;-68
2022/01/06 05:46:38;;;;;;;4.45;1.20;;;15.30;47.30;14.40;101145.00;;;;5014792;28;20537;-68
2022/01/06 05:49:24;;;;;;;2.22;0.70;;;15.30;47.30;14.40;101142.00;;;;5019323;28;20049;-68
2022/01/06 05:52:10;;;;;;;3.63;1.02;;;15.30;47.30;14.40;101150.00;;;;5017613;28;20412;-68
2022/01/06 05:54:57;;;;;;;4.47;1.20;;;15.20;47.30;14.40;101155.00;;;;4997366;28;20045;-68
2022/01/06 05:57:43;;;;;;;4.72;0.93;;;15.20;47.20;14.40;101156.00;;;;4997768;28;20376;-68
2022/01/06 06:00:29;;;;;;;3.85;1.10;;;15.20;47.20;14.30;101158.00;;;;5002322;28;20042;-68
2022/01/06 06:03:15;;;;;;;3.83;0.98;;;15.20;47.20;14.30;101160.00;;;;5012292;28;20042;-68
2022/01/06 06:06:02;;;;;;;3.83;1.05;;;15.20;47.20;14.30;101164.00;;;;5013638;28;20506;-68
2022/01/06 06:08:48;;;;;;;3.55;0.80;;;15.20;47.20;14.30;101166.00;;;;5000808;28;20545;-68
2022/01/06 06:11:34;;;;;;;4.55;0.88;;;15.20;47.20;14.30;101158.00;;;;5014588;28;20052;-68
2022/01/06 06:14:20;;;;;;;4.20;0.95;;;15.20;47.20;14.30;101168.00;;;;5017603;28;20048;-68
2022/01/06 06:17:06;;;;;;;5.07;1.35;;;15.20;47.10;14.30;101175.00;;;;5011806;28;20737;-68
2022/01/06 06:19:52;;;;;;;2.63;0.80;;;15.10;47.20;14.30;101189.00;;;;5015708;28;20609;-68
2022/01/06 06:22:39;;;;;;;3.95;1.08;;;15.10;47.10;14.20;101182.00;;;;5021387;28;20102;-68
2022/01/06 06:25:25;;;;;;;5.13;1.17;;;15.10;47.10;14.20;101186.00;;;;5003539;28;20069;-68
2022/01/06 06:28:11;;;;;;;6.25;1.60;;;15.10;47.10;14.20;101189.00;;;;5022323;28;20060;-68
2022/01/06 06:30:58;;;;;;;4.63;1.30;;;15.10;47.20;14.20;101198.00;;;;5021235;28;20124;-68
2022/01/06 06:33:44;;;;;;;3.78;1.35;;;15.10;47.10;14.20;101200.00;;;;5023900;28;20056;-68
2022/01/06 06:36:30;;;;;;;3.88;1.20;;;15.10;47.10;14.20;101197.00;;;;5021269;28;20049;-68
2022/01/06 06:39:16;;;;;;;2.90;1.02;;;15.10;47.10;14.20;101206.00;;;;5023400;28;20048;-68
2022/01/06 06:42:03;;;;;;;3.13;1.10;;;15.10;47.20;14.20;101209.00;;;;5017153;28;20459;-68
2022/01/06 06:44:49;;;;;;;3.35;1.20;;;15.10;47.20;14.20;101210.00;;;;5009536;28;20077;-68
2022/01/06 06:47:35;;;;;;;2.75;1.20;;;15.00;47.10;14.20;101214.00;;;;5018275;28;20042;-68
2022/01/06 06:50:22;;;;;;;4.47;1.30;;;15.10;47.20;14.20;101212.00;;;;5023419;28;20127;-68
2022/01/06 06:53:08;;;;;;;3.38;1.00;;;15.10;47.10;14.20;101225.00;;;;5021715;28;20095;-68
2022/01/06 06:55:54;;;;;;;3.70;1.08;;;15.10;47.10;14.20;101236.00;;;;5016664;28;21808;-68
2022/01/06 06:58:40;;;;;;;3.08;1.00;;;15.00;47.10;14.20;101244.00;;;;5007259;28;20586;-68
2022/01/06 07:01:26;;;;;;;6.20;1.10;;;15.10;47.20;14.20;101256.00;;;;5017446;28;20406;-68
2022/01/06 07:04:12;;;;;;;4.05;1.10;;;15.00;47.10;14.20;101254.00;;;;5020528;28;20041;-68
2022/01/06 07:06:59;;;;;;;3.20;0.90;;;15.10;47.10;14.20;101260.00;;;;5022750;28;20158;-68
2022/01/06 07:09:46;;;;;;;3.05;1.30;;;15.10;47.10;14.20;101257.00;;;;5005281;28;20053;-68
2022/01/06 07:12:32;;;;;;;4.72;0.93;;;15.10;47.20;14.20;101260.00;;;;5019482;28;20188;-68
2022/01/06 07:15:19;;;;;;;2.30;1.05;;;15.00;47.10;14.20;101263.00;;;;5019960;28;20123;-67
2022/01/06 07:18:05;;;;;;;5.95;1.30;;;15.10;47.10;14.20;101268.00;;;;5018690;28;20041;-67
2022/01/06 07:20:51;;;;;;;2.72;0.98;;;15.10;47.20;14.20;101271.00;;;;5025777;28;20045;-68
2022/01/06 07:23:37;;;;;;;3.70;1.20;;;15.00;47.10;14.20;101281.00;;;;5020417;28;20075;-68
2022/01/06 07:26:23;;;;;;;4.68;0.80;;;15.10;47.20;14.20;101292.00;;;;5021183;28;20120;-67
2022/01/06 07:29:09;;;;;;;2.08;1.00;;;15.10;47.20;14.20;101296.00;;;;5018986;28;20136;-67
2022/01/06 07:31:56;;;;;;;2.90;0.95;;;15.00;47.10;14.20;101296.00;;;;5018742;28;20417;-67
2022/01/06 07:34:42;;;;;;;5.20;1.10;;;15.00;47.10;14.20;101310.00;;;;5016775;28;20045;-68
2022/01/06 07:37:28;;;;;;;3.08;0.98;;;15.00;47.10;14.20;101308.00;;;;5015840;28;20055;-68
2022/01/06 07:40:14;;;;;;;1.95;0.70;;;15.00;47.10;14.20;101303.00;;;;5018542;28;20076;-67
2022/01/06 07:43:00;;;;;;;2.95;0.70;;;15.00;47.10;14.20;101308.00;;;;5007543;28;20148;-67
2022/01/06 07:45:48;;;;;;;3.45;0.80;;;15.00;47.00;14.20;101317.00;;;;5016134;28;20479;-68
2022/01/06 07:48:48;;;;;;;3.83;1.30;;;15.00;47.00;14.20;101318.00;;;;5018500;28;20047;-67
2022/01/06 07:51:34;;;;;;;3.08;0.85;;;15.00;47.00;14.20;101328.00;;;;5006578;28;20743;-67
2022/01/06 07:54:21;;;;;;;3.55;0.73;;;15.00;46.90;14.20;101323.00;;;;5023093;28;20606;-67
2022/01/06 07:57:08;;;;;;;4.03;1.05;;;15.00;47.00;14.20;101326.00;;;;4992817;28;20590;-67
2022/01/06 07:59:54;;;;;;;2.25;0.85;;;15.00;47.00;14.20;101332.00;;;;5008328;28;20053;-67
2022/01/06 08:02:40;;;;;;;3.15;0.73;;;15.00;47.10;14.20;101343.00;;;;5027899;28;20050;-67
2022/01/06 08:05:27;;;;;;;1.83;0.77;;;15.00;47.10;14.20;101339.00;;;;5026643;28;20036;-67
2022/01/06 08:08:13;;;;;;;4.55;1.20;;;15.00;47.00;14.20;101347.00;;;;5002849;28;20033;-67
2022/01/06 08:11:00;;;;;;;2.65;0.88;;;15.00;47.10;14.20;101350.00;;;;5028123;28;20048;-67
2022/01/06 08:13:46;;;;;;;2.00;0.77;;;15.00;47.10;14.20;101361.00;;;;4992534;28;20056;-68
2022/01/06 08:16:32;;;;;;;3.85;0.85;;;15.00;47.10;14.20;101361.00;;;;5023501;28;20132;-67
2022/01/06 08:19:18;;;;;;;1.35;0.85;;;15.00;47.10;14.20;101362.00;;;;5010976;28;20095;-68
2022/01/06 08:22:05;;;;;;;1.52;0.68;;;15.00;47.10;14.10;101365.00;;;;5009801;28;20051;-67
2022/01/06 08:24:54;;;;;;;0.95;0.35;;;15.00;47.10;14.10;101365.00;;;;4999181;28;20033;-67
2022/01/06 08:27:40;;;;;;;2.45;0.80;;;15.00;47.10;14.10;101373.00;;;;5012486;28;20037;-67
2022/01/06 08:30:27;;;;;;;3.90;0.90;;;15.00;47.10;14.10;101362.00;;;;5013112;28;20049;-67
2022/01/06 08:33:15;;;;;;;3.15;0.77;;;15.00;47.10;14.10;101374.00;;;;4993404;28;20112;-67
2022/01/06 08:36:02;;;;;;;;;;;15.00;47.10;14.10;101374.00;;;;5016734;28;20045;-67
2022/01/06 08:38:48;;;;;;;3.55;0.57;;;15.00;47.30;14.10;101388.00;;;;5023510;28;19971;-67
2022/01/06 08:41:35;;;;;;;2.63;0.75;;;15.00;47.10;14.10;101385.00;;;;5023651;28;20597;-67
2022/01/06 08:44:21;;;;;;;5.05;0.82;;;15.00;47.10;14.10;101395.00;;;;4996244;28;20037;-68
2022/01/06 08:47:08;;;;;;;1.92;0.82;;;15.00;47.10;14.10;101397.00;;;;5014895;28;20041;-67
2022/01/06 08:49:55;;;;;;;2.77;0.80;;;14.90;46.90;14.10;101396.00;;;;5013223;28;20136;-68
2022/01/06 08:52:41;;;;;;;3.53;0.60;;;14.90;47.00;14.10;101386.00;;;;5018812;28;20037;-68
2022/01/06 08:55:27;;;;;;;4.25;0.80;;;15.00;47.00;14.10;101385.00;;;;5021033;28;20071;-67
2022/01/06 08:58:14;;;;;;;4.93;1.00;;;15.00;47.00;14.10;101388.00;;;;5023944;28;20136;-67
2022/01/06 09:01:00;;;;;;;2.42;0.90;;;15.00;47.00;14.10;101397.00;;;;5007592;28;20095;-67
2022/01/06 09:03:47;;;;;;;4.28;1.13;;;15.00;47.10;14.10;101397.00;;;;5025718;28;20048;-67
2022/01/06 09:06:33;;;;;;;3.15;0.75;;;15.00;47.10;14.10;101391.00;;;;5025271;28;20052;-67
2022/01/06 09:09:19;;;;;;;3.13;1.13;;;15.00;47.00;14.10;101407.00;;;;5008092;28;20120;-67
2022/01/06 09:12:11;;;;;;;2.60;0.60;;;15.00;47.10;14.10;101398.00;;;;5022993;28;20041;-67
2022/01/06 09:14:57;;;;;;;2.67;0.73;;;15.00;47.10;14.10;101406.00;;;;5006246;28;20503;-67
2022/01/06 09:17:43;;;;;;;5.10;0.90;;;15.00;47.10;14.10;101413.00;;;;5024998;28;20041;-68
2022/01/06 09:20:32;;;;;;;2.83;0.55;;;15.00;47.00;14.10;101408.00;;;;5025687;28;20036;-67
2022/01/06 09:23:18;;;;;;;1.98;0.50;;;15.00;47.10;14.10;101423.00;;;;5012807;28;20459;-68
2022/01/06 09:26:04;;;;;;;2.65;0.85;;;15.00;47.10;14.10;101429.00;;;;4997714;28;20548;-68
2022/01/06 09:28:50;;;;;;;2.47;0.95;;;15.00;47.10;14.10;101431.00;;;;5011419;28;20498;-68
2022/01/06 09:31:36;;;;;;;2.72;0.70;;;15.00;47.10;14.10;101432.00;;;;5028436;28;20086;-68
2022/01/06 09:34:23;;;;;;;2.33;0.88;;;15.00;47.10;14.10;101432.00;;;;5026010;28;20045;-68
2022/01/06 09:37:09;;;;;;;2.97;0.70;;;15.00;47.10;14.10;101450.00;;;;5010448;28;20476;-68
2022/01/06 09:39:55;;;;;;;2.92;0.80;;;14.90;47.10;14.10;101435.00;;;;5027770;28;20052;-68
2022/01/06 09:42:42;;;;;;;4.15;0.80;;;15.30;47.30;14.10;101440.00;;;;5024683;28;20037;-68
2022/01/06 09:45:28;;;;;;;2.90;0.98;;;15.00;47.10;14.10;101434.00;;;;5008661;28;20033;-68
2022/01/06 09:48:15;;;;;;;4.53;0.82;;;15.00;47.10;14.10;101443.00;;;;5026275;28;20041;-67
2022/01/06 09:51:01;;;;;;;4.15;0.80;;;15.00;47.10;14.10;101449.00;;;;5012074;28;20041;-68
2022/01/06 09:53:48;;;;;;;5.22;0.85;;;15.00;47.10;14.10;101451.00;;;;5001766;28;20052;-68
2022/01/06 09:56:35;;;;;;;4.47;1.08;;;15.00;47.00;14.10;101443.00;;;;5010373;28;20080;-68
2022/01/06 09:59:22;;;;;;;4.47;1.20;;;15.00;47.10;14.10;101437.00;;;;5026637;28;20049;-68
2022/01/06 10:02:14;;;;;;;5.65;0.90;;;15.00;47.10;14.10;101439.00;;;;5032005;28;20351;-68
2022/01/06 10:05:01;;;;;;;4.90;1.10;;;15.00;47.00;14.10;101437.00;;;;5025208;28;20033;-68
2022/01/06 10:07:47;;;;;;;7.72;1.02;;;15.20;47.20;14.20;101443.00;;;;5020637;28;20140;-68
2022/01/06 10:10:34;;;;;;;4.30;1.00;;;15.00;47.10;14.20;101444.00;;;;5012423;28;20034;-68
2022/01/06 10:13:21;;;;;;;3.35;0.95;;;15.00;47.10;14.10;101439.00;;;;5007872;28;20033;-68
2022/01/06 10:16:18;;;;;;;4.40;1.17;;;15.00;47.10;14.20;101449.00;;;;5000124;28;20072;-68
2022/01/06 10:19:10;;;;;;;2.72;1.02;;;15.00;47.20;14.20;101455.00;;;;5013111;28;20061;-68
2022/01/06 10:22:00;;;;;;;4.55;0.73;;;15.00;47.20;14.20;101444.00;;;;5027055;28;20045;-68
2022/01/06 10:24:48;;;;;;;4.43;1.63;;;15.00;47.20;14.20;101446.00;;;;5025737;28;20354;-68
2022/01/06 10:27:34;;;;;;;5.75;0.93;;;15.00;47.10;14.20;101440.00;;;;4995340;28;20128;-68
2022/01/06 10:30:20;;;;;;;4.10;0.95;;;15.00;47.10;14.20;101451.00;;;;5025146;28;20614;-68
2022/01/06 10:33:06;;;;;;;4.00;1.20;;;15.00;47.10;14.20;101457.00;;;;5025752;28;20038;-68
2022/01/06 10:35:52;;;;;;;7.55;1.42;;;15.00;47.20;14.20;101454.00;;;;5009781;28;20048;-68
2022/01/06 10:38:39;;;;;;;6.50;1.02;;;15.00;47.10;14.10;101440.00;;;;5009546;28;20038;-68
2022/01/06 10:41:27;;;;;;;6.53;1.27;;;15.00;47.20;14.20;101439.00;;;;5028236;28;20065;-68
2022/01/06 10:44:13;;;;;;;6.90;1.38;;;15.00;47.20;14.20;101445.00;;;;5011458;28;20140;-67
2022/01/06 10:47:00;;;;;;;5.70;1.23;;;15.00;47.10;14.20;101445.00;;;;5024128;28;20509;-68
2022/01/06 10:49:46;;;;;;;5.57;1.23;;;15.10;47.20;14.20;101450.00;;;;5028160;28;20568;-68
2022/01/06 10:52:32;;;;;;;5.72;1.40;;;15.10;47.20;14.20;101444.00;;;;5001089;28;20431;-68
2022/01/06 10:55:23;;;;;;;4.95;1.55;;;15.10;47.10;14.20;101449.00;;;;5024198;28;20103;-68
2022/01/06 10:58:25;;;;;;;5.80;1.33;;;15.10;47.10;14.20;101449.00;;;;5022697;28;20406;-68
2022/01/06 11:01:16;;;;;;;5.50;1.20;;;15.10;47.10;14.20;101436.00;;;;5008574;28;20045;-68
2022/01/06 11:04:02;;;;;;;3.85;1.10;;;15.10;47.10;14.20;101436.00;;;;5005554;28;20108;-68
2022/01/06 11:06:50;;;;;;;7.05;1.50;;;15.10;47.10;14.20;101437.00;;;;5030599;28;20050;-68
2022/01/06 11:09:38;;;;;;;4.70;1.88;;;15.10;47.10;14.20;101441.00;;;;5014466;28;20403;-68
2022/01/06 11:12:26;;;;;;;;;;;15.10;47.20;14.20;101446.00;;;;5001064;28;20071;-67
2022/01/06 11:15:13;;;;;;;2.88;1.00;;;15.10;47.30;14.20;101441.00;;;;5012170;28;19963;-68
2022/01/06 11:18:01;;;;;;;5.78;1.50;;;15.20;47.20;14.20;101446.00;;;;5002707;28;20121;-68
2022/01/06 11:20:47;;;;;;;6.05;1.75;;;15.20;47.20;14.20;101449.00;;;;5012228;28;20049;-67
2022/01/06 11:23:33;;;;;;;7.65;1.48;;;15.20;47.20;14.20;101447.00;;;;5012107;28;20470;-67
2022/01/06 11:26:22;;;;;;;4.32;1.23;;;15.20;47.20;14.20;101445.00;;;;5004716;28;20033;-68
2022/01/06 11:29:08;;;;;;;7.00;1.00;;;15.20;47.20;14.30;101451.00;;;;5018885;28;20041;-68
2022/01/06 11:31:55;;;;;;;5.65;1.10;;;15.20;47.30;14.30;101450.00;;;;5029765;28;20041;-68
2022/01/06 11:34:41;;;;;;;5.78;2.03;;;15.20;47.30;14.30;101453.00;;;;5026239;28;20410;-68
2022/01/06 11:37:38;;;;;;;5.90;1.33;;;15.20;47.30;14.30;101449.00;;;;5004750;28;21837;-68
2022/01/06 11:40:34;;;;;;;4.55;1.50;;;15.20;47.30;14.30;101443.00;;;;5017550;28;20042;-68
2022/01/06 11:43:20;;;;;;;8.43;1.73;;;15.20;47.30;14.30;101442.00;;;;5012868;28;20302;-68
2022/01/06 11:46:06;;;;;;;3.35;1.05;;;15.20;47.30;14.30;101450.00;;;;5029050;28;20119;-68
2022/01/06 11:48:58;;;;;;;4.68;1.90;;;15.20;47.30;14.30;101450.00;;;;5011409;28;20046;-68
2022/01/06 11:51:45;;;;;;;4.78;1.40;;;15.20;47.30;14.30;101449.00;;;;5014064;28;20079;-68
2022/01/06 11:54:31;;;;;;;5.85;1.05;;;15.20;47.20;14.30;101453.00;;;;5013854;28;20135;-68
2022/01/06 11:57:34;;;;;;;5.03;1.20;;;15.20;47.20;14.30;101449.00;;;;5030622;28;20112;-68
2022/01/06 12:00:24;;;;;;;6.53;1.40;;;15.20;47.10;14.30;101445.00;;;;5008213;28;20477;-68
2022/01/06 12:03:12;;;;;;;5.90;1.45;;;15.30;47.20;14.30;101443.00;;;;4992750;28;20451;-68
2022/01/06 12:05:58;;;;;;;6.97;1.70;;;15.20;47.10;14.30;101439.00;;;;4983954;28;20034;-68
2022/01/06 12:08:44;;;;;;;4.80;1.27;;;15.20;47.10;14.30;101446.00;;;;4988044;28;20628;-68
2022/01/06 12:11:34;;;;;;;6.07;1.58;;;15.20;47.00;14.30;101434.00;;;;4983797;28;20468;-68
2022/01/06 12:14:24;;;;;;;6.07;1.33;;;15.20;47.00;14.30;101446.00;;;;5008216;28;20961;-68
2022/01/06 12:17:11;;;;;;;7.47;1.77;;;15.30;47.10;14.30;101437.00;;;;4993830;28;20061;-68
2022/01/06 12:19:58;;;;;;;6.35;1.40;;;15.30;47.10;14.30;101441.00;;;;4994042;28;20160;-67
2022/01/06 12:22:44;;;;;;;5.67;1.90;;;15.30;47.00;14.30;101440.00;;;;5007952;28;20052;-67